createdAt,value
2019-03-18T00:01:54.864Z,5.70
2019-03-18T00:04:25.491Z,5.70
2019-03-18T00:06:58.514Z,5.70
2019-03-18T00:09:29.060Z,5.70
2019-03-18T00:12:02.194Z,5.70
2019-03-18T00:14:32.746Z,5.60
2019-03-18T00:17:03.199Z,5.50
2019-03-18T00:19:33.849Z,5.50
2019-03-18T00:22:04.423Z,5.50
2019-03-18T00:24:35.012Z,5.50
2019-03-18T00:27:05.532Z,5.50
2019-03-18T00:29:35.908Z,5.40
2019-03-18T00:32:07.195Z,5.50
2019-03-18T00:34:37.724Z,5.40
2019-03-18T00:37:08.558Z,5.40
2019-03-18T00:39:39.106Z,5.50
2019-03-18T00:42:09.810Z,5.50
2019-03-18T00:44:40.592Z,5.50
2019-03-18T00:47:11.179Z,5.50
2019-03-18T00:49:41.658Z,5.40
2019-03-18T00:52:12.290Z,5.50
2019-03-18T00:54:42.764Z,5.40
2019-03-18T00:57:13.325Z,5.30
2019-03-18T00:59:44.022Z,5.30
2019-03-18T01:02:14.608Z,5.40
2019-03-18T01:04:45.227Z,5.40
2019-03-18T01:07:17.224Z,5.20
2019-03-18T01:09:47.730Z,5.40
2019-03-18T01:12:18.462Z,5.50
2019-03-18T01:14:48.880Z,5.40
2019-03-18T01:17:21.411Z,5.30
2019-03-18T01:19:52.052Z,5.30
2019-03-18T01:22:22.497Z,5.30
2019-03-18T01:24:52.944Z,5.10
2019-03-18T01:27:25.322Z,5.30
2019-03-18T01:29:55.684Z,5.30
2019-03-18T01:32:26.207Z,5.40
2019-03-18T01:34:56.788Z,5.30
2019-03-18T01:37:27.938Z,5.30
2019-03-18T01:40:00.365Z,5.30
2019-03-18T01:42:31.270Z,5.40
2019-03-18T01:45:01.762Z,5.30
2019-03-18T01:47:32.552Z,5.40
2019-03-18T01:50:03.042Z,5.30
2019-03-18T01:52:33.619Z,5.40
2019-03-18T01:55:04.156Z,5.40
2019-03-18T01:57:34.574Z,5.40
2019-03-18T02:00:05.674Z,5.40
2019-03-18T02:02:36.702Z,5.50
2019-03-18T02:05:07.120Z,5.50
2019-03-18T02:07:38.170Z,5.50
2019-03-18T02:10:09.697Z,5.50
2019-03-18T02:12:40.591Z,5.50
2019-03-18T02:15:11.581Z,5.40
2019-03-18T02:17:42.102Z,5.40
2019-03-18T02:20:12.980Z,5.40
2019-03-18T02:22:43.502Z,5.40
2019-03-18T02:25:13.992Z,5.40
2019-03-18T02:27:44.556Z,5.50
2019-03-18T02:30:15.762Z,5.50
2019-03-18T02:32:46.146Z,5.60
2019-03-18T02:35:16.771Z,5.60
2019-03-18T02:37:50.034Z,5.60
2019-03-18T02:40:20.908Z,5.50
2019-03-18T02:42:51.515Z,5.50
2019-03-18T02:45:24.854Z,5.60
2019-03-18T02:47:54.688Z,5.60
2019-03-18T02:50:25.231Z,5.60
2019-03-18T02:52:55.675Z,5.60
2019-03-18T02:55:26.414Z,5.70
2019-03-18T02:57:58.140Z,5.60
2019-03-18T03:00:28.607Z,5.50
2019-03-18T03:02:59.387Z,5.60
2019-03-18T03:05:30.221Z,5.60
2019-03-18T03:08:00.621Z,5.50
2019-03-18T03:10:31.043Z,5.60
2019-03-18T03:13:01.694Z,5.60
2019-03-18T03:15:32.409Z,5.60
2019-03-18T03:18:02.888Z,5.70
2019-03-18T03:20:33.481Z,5.70
2019-03-18T03:23:04.174Z,5.60
2019-03-18T03:25:34.595Z,5.70
2019-03-18T03:28:05.128Z,5.70
2019-03-18T03:30:35.787Z,5.80
2019-03-18T03:33:06.261Z,5.80
2019-03-18T03:35:37.060Z,5.80
2019-03-18T03:38:07.778Z,5.80
2019-03-18T03:40:38.601Z,5.90
2019-03-18T03:43:09.017Z,5.70
2019-03-18T03:45:39.430Z,5.80
2019-03-18T03:48:10.380Z,5.80
2019-03-18T03:50:41.041Z,5.80
2019-03-18T03:53:11.446Z,5.70
2019-03-18T03:55:41.949Z,5.80
2019-03-18T03:58:12.575Z,5.80
2019-03-18T04:00:43.458Z,5.70
2019-03-18T04:03:13.913Z,5.80
2019-03-18T04:05:44.479Z,5.70
2019-03-18T04:08:16.208Z,5.70
2019-03-18T04:10:46.625Z,5.70
2019-03-18T04:13:17.804Z,5.60
2019-03-18T04:15:48.661Z,5.60
2019-03-18T04:18:22.082Z,5.60
2019-03-18T04:20:52.584Z,5.70
2019-03-18T04:23:23.000Z,5.70
2019-03-18T04:25:53.597Z,5.70
2019-03-18T04:28:24.148Z,5.70
2019-03-18T04:30:54.965Z,5.70
2019-03-18T04:33:25.492Z,5.60
2019-03-18T04:35:56.058Z,5.50
2019-03-18T04:38:26.784Z,5.60
2019-03-18T04:40:57.343Z,5.60
2019-03-18T04:43:27.731Z,5.60
2019-03-18T04:45:58.416Z,5.60
2019-03-18T04:48:28.847Z,5.60
2019-03-18T04:50:59.291Z,5.50
2019-03-18T04:53:29.693Z,5.60
2019-03-18T04:55:59.977Z,5.60
2019-03-18T04:58:30.357Z,5.60
2019-03-18T05:01:00.455Z,5.60
2019-03-18T05:03:30.677Z,5.60
2019-03-18T05:06:01.127Z,5.50
2019-03-18T05:08:32.025Z,5.50
2019-03-18T05:11:02.382Z,5.40
2019-03-18T05:13:32.463Z,5.30
2019-03-18T05:16:02.636Z,5.30
2019-03-18T05:18:32.703Z,5.40
2019-03-18T05:21:02.883Z,5.40
2019-03-18T05:23:33.025Z,5.40
2019-03-18T05:26:03.177Z,5.40
2019-03-18T05:28:33.569Z,5.50
2019-03-18T05:31:03.891Z,5.50
2019-03-18T05:33:34.440Z,5.50
2019-03-18T05:36:04.762Z,5.40
2019-03-18T05:38:35.646Z,5.40
2019-03-18T05:41:06.297Z,5.40
2019-03-18T05:43:37.103Z,5.40
2019-03-18T05:46:07.888Z,5.40
2019-03-18T05:48:38.193Z,5.50
2019-03-18T05:51:08.824Z,5.40
2019-03-18T05:53:43.010Z,5.50
2019-03-18T05:56:13.778Z,5.50
2019-03-18T05:58:44.792Z,5.60
2019-03-18T06:01:15.342Z,5.60
2019-03-18T06:03:46.435Z,5.60
2019-03-18T06:06:17.401Z,5.40
2019-03-18T06:08:48.264Z,5.50
2019-03-18T06:11:19.577Z,5.40
2019-03-18T06:13:50.566Z,5.40
2019-03-18T06:16:21.754Z,5.40
2019-03-18T06:18:53.954Z,5.50
2019-03-18T06:21:25.161Z,5.50
2019-03-18T06:23:56.161Z,5.40
2019-03-18T06:26:27.068Z,5.40
2019-03-18T06:28:57.994Z,5.60
2019-03-18T06:31:28.882Z,5.60
2019-03-18T06:33:59.933Z,5.60
2019-03-18T06:36:30.778Z,5.70
2019-03-18T06:39:02.107Z,5.80
2019-03-18T06:41:33.028Z,5.90
2019-03-18T06:44:04.000Z,5.90
2019-03-18T06:46:34.983Z,5.80
2019-03-18T06:49:06.150Z,5.90
2019-03-18T06:51:37.187Z,5.90
2019-03-18T06:54:08.086Z,6.00
2019-03-18T06:56:38.830Z,6.10
2019-03-18T06:59:09.724Z,6.00
2019-03-18T07:01:44.180Z,6.20
2019-03-18T07:04:14.983Z,6.20
2019-03-18T07:06:46.180Z,6.10
2019-03-18T07:09:17.216Z,6.30
2019-03-18T07:11:48.213Z,6.20
2019-03-18T07:14:21.992Z,6.20
2019-03-18T07:16:52.687Z,6.30
2019-03-18T07:19:23.748Z,6.50
2019-03-18T07:21:55.066Z,6.40
2019-03-18T07:24:25.724Z,6.50
2019-03-18T07:26:56.966Z,6.70
2019-03-18T07:29:27.824Z,6.60
2019-03-18T07:31:58.602Z,6.70
2019-03-18T07:34:29.598Z,6.80
2019-03-18T07:37:00.796Z,6.60
2019-03-18T07:39:31.516Z,7.00
2019-03-18T07:42:02.389Z,7.00
2019-03-18T07:44:33.279Z,7.00
2019-03-18T07:47:04.410Z,7.10
2019-03-18T07:49:35.913Z,7.30
2019-03-18T07:52:08.232Z,7.20
2019-03-18T07:54:39.066Z,7.20
2019-03-18T07:57:09.874Z,7.40
2019-03-18T07:59:41.122Z,7.40
2019-03-18T08:02:12.229Z,7.30
2019-03-18T08:04:43.438Z,7.30
2019-03-18T08:07:14.424Z,7.40
2019-03-18T08:09:45.385Z,7.40
2019-03-18T08:12:15.765Z,7.60
2019-03-18T08:14:49.717Z,7.50
2019-03-18T08:17:22.391Z,7.60
2019-03-18T08:19:53.440Z,7.60
2019-03-18T08:22:25.657Z,7.80
2019-03-18T08:24:56.587Z,7.70
2019-03-18T08:27:27.696Z,7.70
2019-03-18T08:29:59.116Z,7.60
2019-03-18T08:32:30.056Z,7.50
2019-03-18T08:35:01.442Z,7.50
2019-03-18T08:37:32.596Z,7.40
2019-03-18T08:40:03.714Z,7.50
2019-03-18T08:42:35.396Z,7.30
2019-03-18T08:45:07.090Z,7.40
2019-03-18T08:47:40.858Z,7.50
2019-03-18T08:50:12.874Z,7.60
2019-03-18T08:52:43.959Z,7.50
2019-03-18T08:55:14.831Z,7.40
2019-03-18T08:57:46.110Z,7.50
2019-03-18T09:00:17.228Z,7.50
2019-03-18T09:02:50.626Z,7.50
2019-03-18T09:05:21.826Z,7.50
2019-03-18T09:07:52.792Z,7.70
2019-03-18T09:10:23.489Z,7.70
2019-03-18T09:12:54.740Z,8.00
2019-03-18T09:15:28.140Z,8.10
2019-03-18T09:17:59.109Z,8.30
2019-03-18T09:20:29.900Z,8.60
2019-03-18T09:23:01.687Z,8.60
2019-03-18T09:25:32.918Z,8.50
2019-03-18T09:28:04.096Z,8.60
2019-03-18T09:30:36.366Z,8.60
2019-03-18T09:33:07.271Z,8.70
2019-03-18T09:35:37.707Z,8.70
2019-03-18T09:38:08.897Z,8.60
2019-03-18T09:40:40.155Z,8.50
2019-03-18T09:43:10.777Z,8.50
2019-03-18T09:45:42.280Z,8.80
2019-03-18T09:48:14.055Z,9.10
2019-03-18T09:50:45.022Z,9.10
2019-03-18T09:53:15.843Z,9.00
2019-03-18T09:55:46.639Z,9.10
2019-03-18T09:58:17.584Z,9.20
2019-03-18T10:00:48.365Z,9.20
2019-03-18T10:03:19.525Z,9.30
2019-03-18T10:05:50.396Z,9.30
2019-03-18T10:08:21.620Z,8.80
2019-03-18T10:10:52.779Z,8.90
2019-03-18T10:13:26.119Z,8.70
2019-03-18T10:15:58.793Z,8.60
2019-03-18T10:18:32.562Z,8.60
2019-03-18T10:21:03.705Z,8.50
2019-03-18T10:23:34.617Z,8.90
2019-03-18T10:26:05.523Z,9.20
2019-03-18T10:28:35.881Z,9.50
2019-03-18T10:31:06.507Z,9.40
2019-03-18T10:33:37.181Z,9.60
2019-03-18T10:36:08.035Z,9.60
2019-03-18T10:38:38.801Z,9.70
2019-03-18T10:41:10.749Z,9.90
2019-03-18T10:43:43.135Z,9.90
2019-03-18T10:46:16.268Z,9.80
2019-03-18T10:48:47.230Z,9.40
2019-03-18T10:51:18.176Z,8.20
2019-03-18T10:53:48.773Z,7.70
2019-03-18T10:56:20.938Z,7.50
2019-03-18T10:58:51.565Z,7.40
2019-03-18T11:01:22.038Z,7.30
2019-03-18T11:03:52.622Z,7.00
2019-03-18T11:06:23.281Z,7.10
2019-03-18T11:08:54.057Z,6.80
2019-03-18T11:11:26.440Z,7.10
2019-03-18T11:13:57.051Z,7.10
2019-03-18T11:16:27.641Z,7.20
2019-03-18T11:18:58.047Z,7.50
2019-03-18T11:21:29.144Z,7.80
2019-03-18T11:23:59.697Z,7.80
2019-03-18T11:26:30.135Z,7.90
2019-03-18T11:29:00.768Z,7.80
2019-03-18T11:31:31.815Z,7.80
2019-03-18T11:34:02.399Z,7.60
2019-03-18T11:36:33.161Z,7.80
2019-03-18T11:39:04.648Z,7.80
2019-03-18T11:41:38.207Z,7.80
2019-03-18T11:44:11.530Z,8.00
2019-03-18T11:46:42.283Z,8.10
2019-03-18T11:49:13.189Z,8.10
2019-03-18T11:51:44.011Z,8.30
2019-03-18T11:54:15.003Z,8.20
2019-03-18T11:56:47.616Z,8.20
2019-03-18T11:59:21.161Z,8.50
2019-03-18T12:01:52.680Z,8.30
2019-03-18T12:04:32.608Z,8.20
2019-03-18T12:07:01.981Z,8.20
2019-03-18T12:09:35.114Z,8.50
2019-03-18T12:12:06.829Z,8.40
2019-03-18T12:14:37.651Z,8.60
2019-03-18T12:17:08.389Z,8.60
2019-03-18T12:19:39.173Z,8.40
2019-03-18T12:22:09.895Z,8.50
2019-03-18T12:24:40.755Z,8.60
2019-03-18T12:27:13.009Z,8.80
2019-03-18T12:29:45.409Z,9.00
2019-03-18T12:32:16.448Z,9.10
2019-03-18T12:34:47.390Z,9.30
2019-03-18T12:37:18.365Z,9.30
2019-03-18T12:39:49.397Z,9.40
2019-03-18T12:42:20.081Z,9.40
2019-03-18T12:44:50.795Z,9.70
2019-03-18T12:47:21.797Z,9.80
2019-03-18T12:49:52.642Z,10.00
2019-03-18T12:52:23.326Z,10.00
2019-03-18T12:54:54.010Z,10.00
2019-03-18T12:57:25.097Z,9.90
2019-03-18T12:59:56.031Z,10.00
2019-03-18T13:02:27.005Z,10.00
2019-03-18T13:04:57.823Z,10.10
2019-03-18T13:07:28.335Z,10.00
2019-03-18T13:09:59.021Z,9.70
2019-03-18T13:12:29.457Z,9.50
2019-03-18T13:15:00.000Z,9.10
2019-03-18T13:17:30.582Z,9.20
2019-03-18T13:20:03.222Z,9.30
2019-03-18T13:22:33.793Z,9.30
2019-03-18T13:25:04.585Z,9.20
2019-03-18T13:27:35.896Z,9.40
2019-03-18T13:30:11.796Z,9.40
2019-03-18T13:32:42.546Z,9.20
2019-03-18T13:35:13.180Z,9.30
2019-03-18T13:37:44.698Z,9.20
2019-03-18T13:40:15.862Z,9.50
2019-03-18T13:42:46.512Z,9.20
2019-03-18T13:45:17.485Z,9.20
2019-03-18T13:47:48.227Z,9.40
2019-03-18T13:50:19.635Z,9.00
2019-03-18T13:52:50.335Z,9.20
2019-03-18T13:55:22.716Z,9.20
2019-03-18T13:57:54.106Z,9.20
2019-03-18T14:00:26.126Z,9.50
2019-03-18T14:02:57.014Z,9.40
2019-03-18T14:05:27.955Z,9.50
2019-03-18T14:08:00.683Z,9.50
2019-03-18T14:10:30.915Z,9.60
2019-03-18T14:13:01.785Z,9.70
2019-03-18T14:15:32.283Z,9.60
2019-03-18T14:18:03.205Z,9.50
2019-03-18T14:20:33.877Z,9.60
2019-03-18T14:23:06.038Z,9.80
2019-03-18T14:25:36.900Z,9.80
2019-03-18T14:28:07.674Z,9.90
2019-03-18T14:30:38.826Z,9.70
2019-03-18T14:33:09.501Z,9.90
2019-03-18T14:35:40.221Z,10.10
2019-03-18T14:38:10.810Z,10.00
2019-03-18T14:40:41.767Z,10.10
2019-03-18T14:43:12.423Z,10.00
2019-03-18T14:45:43.228Z,10.00
2019-03-18T14:48:14.371Z,10.10
2019-03-18T14:50:45.106Z,10.20
2019-03-18T14:53:15.683Z,10.30
2019-03-18T14:55:46.575Z,10.40
2019-03-18T14:58:17.085Z,10.30
2019-03-18T15:00:48.154Z,10.30
2019-03-18T15:03:18.900Z,10.20
2019-03-18T15:05:49.839Z,10.10
2019-03-18T15:08:20.776Z,9.90
2019-03-18T15:10:51.751Z,9.50
2019-03-18T15:13:30.780Z,9.30
2019-03-18T15:15:55.137Z,9.10
2019-03-18T15:18:25.934Z,8.80
2019-03-18T15:20:57.231Z,8.80
2019-03-18T15:23:27.832Z,8.80
2019-03-18T15:25:58.401Z,8.80
2019-03-18T15:28:29.715Z,8.80
2019-03-18T15:31:00.583Z,8.80
2019-03-18T15:33:31.474Z,8.90
2019-03-18T15:36:02.083Z,8.80
2019-03-18T15:38:33.163Z,8.60
2019-03-18T15:41:04.103Z,8.70
2019-03-18T15:43:35.827Z,8.80
2019-03-18T15:46:08.401Z,8.80
2019-03-18T15:48:39.235Z,9.00
2019-03-18T15:51:09.955Z,8.70
2019-03-18T15:53:40.803Z,9.00
2019-03-18T15:56:12.525Z,9.00
2019-03-18T15:58:43.381Z,9.10
2019-03-18T16:01:14.446Z,9.30
2019-03-18T16:03:45.619Z,9.30
2019-03-18T16:06:16.847Z,9.50
2019-03-18T16:08:50.360Z,9.10
2019-03-18T16:11:20.915Z,9.00
2019-03-18T16:13:51.819Z,8.70
2019-03-18T16:16:23.179Z,8.40
2019-03-18T16:18:57.198Z,8.60
2019-03-18T16:21:28.945Z,8.30
2019-03-18T16:23:59.809Z,8.40
2019-03-18T16:26:30.910Z,8.60
2019-03-18T16:29:02.189Z,8.60
2019-03-18T16:31:33.419Z,8.80
2019-03-18T16:34:04.205Z,8.70
2019-03-18T16:36:36.413Z,8.60
2019-03-18T16:39:08.347Z,8.50
2019-03-18T16:41:39.635Z,8.50
2019-03-18T16:44:13.296Z,8.40
2019-03-18T16:46:45.321Z,8.50
2019-03-18T16:49:16.081Z,8.60
2019-03-18T16:51:47.124Z,8.40
2019-03-18T16:54:18.107Z,8.30
2019-03-18T16:56:49.115Z,8.20
2019-03-18T16:59:19.629Z,8.10
2019-03-18T17:01:50.284Z,8.20
2019-03-18T17:04:20.927Z,8.10
2019-03-18T17:06:54.601Z,8.00
2019-03-18T17:09:25.810Z,7.90
2019-03-18T17:11:56.719Z,7.60
2019-03-18T17:14:27.580Z,7.60
2019-03-18T17:16:59.966Z,7.70
2019-03-18T17:19:30.493Z,7.60
2019-03-18T17:22:01.585Z,7.60
2019-03-18T17:24:32.412Z,7.60
2019-03-18T17:27:03.471Z,7.70
2019-03-18T17:29:35.867Z,7.70
2019-03-18T17:32:07.333Z,7.50
2019-03-18T17:34:38.774Z,7.60
2019-03-18T17:37:09.497Z,7.60
2019-03-18T17:39:40.207Z,7.60
2019-03-18T17:42:10.617Z,7.60
2019-03-18T17:44:40.952Z,7.50
2019-03-18T17:47:13.736Z,7.50
2019-03-18T17:49:44.215Z,7.40
2019-03-18T17:52:14.825Z,7.50
2019-03-18T17:54:45.126Z,7.30
2019-03-18T17:57:15.324Z,7.20
2019-03-18T17:59:45.613Z,7.20
2019-03-18T18:02:16.377Z,7.30
2019-03-18T18:04:46.759Z,7.30
2019-03-18T18:07:17.345Z,7.30
2019-03-18T18:09:47.567Z,7.30
2019-03-18T18:12:18.079Z,7.30
2019-03-18T18:14:48.784Z,7.20
2019-03-18T18:17:19.223Z,7.10
2019-03-18T18:19:50.521Z,7.10
2019-03-18T18:22:27.268Z,7.00
2019-03-18T18:24:58.321Z,7.20
2019-03-18T18:27:29.893Z,7.20
2019-03-18T18:30:00.381Z,7.20
2019-03-18T18:32:30.937Z,7.30
2019-03-18T18:35:04.631Z,7.30
2019-03-18T18:37:35.564Z,7.30
2019-03-18T18:40:06.550Z,7.30
2019-03-18T18:42:37.201Z,7.30
2019-03-18T18:45:08.077Z,7.20
2019-03-18T18:47:38.500Z,7.20
2019-03-18T18:50:10.007Z,7.20
2019-03-18T18:52:40.617Z,7.20
2019-03-18T18:55:11.440Z,7.30
2019-03-18T18:57:41.741Z,7.20
2019-03-18T19:00:14.559Z,7.10
2019-03-18T19:02:46.706Z,7.10
2019-03-18T19:05:17.520Z,7.20
2019-03-18T19:07:48.741Z,7.00
2019-03-18T19:10:19.545Z,7.20
2019-03-18T19:12:50.747Z,7.00
2019-03-18T19:15:24.081Z,7.10
2019-03-18T19:17:53.801Z,7.10
2019-03-18T19:20:24.601Z,7.10
2019-03-18T19:22:58.154Z,7.20
2019-03-18T19:25:28.893Z,7.20
2019-03-18T19:28:00.992Z,7.20
2019-03-18T19:30:31.369Z,7.20
2019-03-18T19:33:02.869Z,7.20
2019-03-18T19:35:33.167Z,7.30
2019-03-18T19:38:04.815Z,7.10
2019-03-18T19:40:35.373Z,7.20
2019-03-18T19:43:06.014Z,7.10
2019-03-18T19:45:36.596Z,7.20
2019-03-18T19:48:07.309Z,7.10
2019-03-18T19:50:37.630Z,7.10
2019-03-18T19:53:08.060Z,7.10
2019-03-18T19:55:40.222Z,7.10
2019-03-18T19:58:10.831Z,7.10
2019-03-18T20:00:41.217Z,7.10
2019-03-18T20:03:11.681Z,7.10
2019-03-18T20:05:42.058Z,7.00
2019-03-18T20:08:12.316Z,7.00
2019-03-18T20:10:43.053Z,7.10
2019-03-18T20:13:13.588Z,7.00
2019-03-18T20:15:43.823Z,7.00
2019-03-18T20:18:14.038Z,7.00
2019-03-18T20:20:44.497Z,7.10
2019-03-18T20:23:14.941Z,6.90
2019-03-18T20:25:45.377Z,7.00
2019-03-18T20:28:15.683Z,6.90
2019-03-18T20:30:46.225Z,6.90
2019-03-18T20:33:18.264Z,6.80
2019-03-18T20:35:50.332Z,6.90
2019-03-18T20:38:22.969Z,6.90
2019-03-18T20:40:53.303Z,6.70
2019-03-18T20:43:23.722Z,6.70
2019-03-18T20:45:54.354Z,6.70
2019-03-18T20:48:24.593Z,6.70
2019-03-18T20:50:56.639Z,6.70
2019-03-18T20:53:26.950Z,6.70
2019-03-18T20:55:57.373Z,6.70
2019-03-18T20:58:27.797Z,6.70
2019-03-18T21:00:59.393Z,6.70
2019-03-18T21:03:30.303Z,6.70
2019-03-18T21:06:00.678Z,6.70
2019-03-18T21:08:35.066Z,6.80
2019-03-18T21:11:05.670Z,6.70
2019-03-18T21:13:39.578Z,6.70
2019-03-18T21:16:11.544Z,6.80
2019-03-18T21:18:43.993Z,7.00
2019-03-18T21:21:13.959Z,6.90
2019-03-18T21:23:44.439Z,7.10
2019-03-18T21:26:14.955Z,7.10
2019-03-18T21:28:45.255Z,7.10
2019-03-18T21:31:15.824Z,7.10
2019-03-18T21:33:46.361Z,7.20
2019-03-18T21:36:32.838Z,7.00
2019-03-18T21:38:50.913Z,6.90
2019-03-18T21:41:23.043Z,7.10
2019-03-18T21:43:53.357Z,7.00
2019-03-18T21:46:23.844Z,7.10
2019-03-18T21:48:54.297Z,7.00
2019-03-18T21:51:24.754Z,7.10
2019-03-18T21:53:55.346Z,7.00
2019-03-18T21:56:25.759Z,6.90
2019-03-18T21:58:56.293Z,6.90
2019-03-18T22:01:26.662Z,6.90
2019-03-18T22:03:57.007Z,6.90
2019-03-18T22:06:27.422Z,6.80
2019-03-18T22:09:01.599Z,6.80
2019-03-18T22:11:32.225Z,6.90
2019-03-18T22:14:02.740Z,6.70
2019-03-18T22:16:33.095Z,6.80
2019-03-18T22:19:03.493Z,6.60
2019-03-18T22:21:33.980Z,6.60
2019-03-18T22:24:04.603Z,6.40
2019-03-18T22:26:35.130Z,6.50
2019-03-18T22:29:05.690Z,6.40
2019-03-18T22:31:36.506Z,6.30
2019-03-18T22:34:11.265Z,6.20
2019-03-18T22:36:38.770Z,6.20
2019-03-18T22:39:09.854Z,6.30
2019-03-18T22:41:41.650Z,6.30
2019-03-18T22:44:11.949Z,6.20
2019-03-18T22:46:42.327Z,6.00
2019-03-18T22:49:12.652Z,6.10
2019-03-18T22:51:43.757Z,6.00
2019-03-18T22:54:14.302Z,6.00
2019-03-18T22:56:44.602Z,6.10
2019-03-18T22:59:14.958Z,6.10
2019-03-18T23:01:45.535Z,6.10
2019-03-18T23:04:15.945Z,5.90
2019-03-18T23:06:46.733Z,5.90
2019-03-18T23:09:17.134Z,5.90
2019-03-18T23:11:48.716Z,6.00
2019-03-18T23:14:19.141Z,6.10
2019-03-18T23:16:49.648Z,6.10
2019-03-18T23:19:21.015Z,6.00
2019-03-18T23:21:51.746Z,5.90
2019-03-18T23:24:23.608Z,5.90
2019-03-18T23:26:55.762Z,6.00
2019-03-18T23:29:26.514Z,5.90
2019-03-18T23:31:57.337Z,6.00
2019-03-18T23:34:28.016Z,6.00
2019-03-18T23:36:58.494Z,6.10
2019-03-18T23:39:32.286Z,5.90
2019-03-18T23:42:03.906Z,5.90
2019-03-18T23:44:35.898Z,5.90
2019-03-18T23:47:06.503Z,6.00
2019-03-18T23:49:37.044Z,6.00
2019-03-18T23:52:07.477Z,5.90
2019-03-18T23:54:37.694Z,6.00
2019-03-18T23:57:08.224Z,6.00
2019-03-18T23:59:38.831Z,6.00
